createdAt,value
2023-03-26T00:00:13.375Z,1.30
2023-03-26T00:05:38.936Z,1.20
2023-03-26T00:10:44.880Z,1.20
2023-03-26T00:15:50.165Z,1.50
2023-03-26T00:20:55.806Z,1.40
2023-03-26T00:26:01.557Z,1.60
2023-03-26T00:31:10.290Z,1.90
2023-03-26T00:36:17.604Z,1.30
2023-03-26T00:41:26.381Z,1.10
2023-03-26T00:46:32.997Z,1.40
2023-03-26T00:51:39.375Z,1.30
2023-03-26T00:56:45.364Z,1.10
2023-03-26T01:01:55.131Z,1.20
2023-03-26T01:07:04.854Z,1.00
2023-03-26T01:12:17.003Z,1.20
2023-03-26T01:17:23.866Z,1.00
2023-03-26T01:22:30.026Z,1.10
2023-03-26T01:27:41.244Z,1.10
2023-03-26T01:32:55.777Z,0.90
2023-03-26T01:38:18.465Z,1.00
2023-03-26T01:43:32.482Z,1.10
2023-03-26T01:48:40.433Z,0.90
2023-03-26T01:53:48.606Z,0.80
2023-03-26T01:59:08.246Z,1.00
2023-03-26T02:04:24.638Z,0.90
2023-03-26T02:09:35.858Z,0.80
2023-03-26T02:14:42.436Z,1.00
2023-03-26T02:19:48.116Z,0.80
2023-03-26T02:24:53.587Z,1.00
2023-03-26T02:29:58.927Z,0.90
2023-03-26T02:35:06.877Z,0.90
2023-03-26T02:40:12.766Z,0.90
2023-03-26T02:45:18.440Z,1.10
2023-03-26T02:50:24.156Z,1.10
2023-03-26T02:55:29.813Z,1.40
2023-03-26T03:00:35.647Z,1.30
2023-03-26T03:05:43.306Z,1.30
2023-03-26T03:10:59.117Z,1.70
2023-03-26T03:16:05.775Z,1.20
2023-03-26T03:21:11.277Z,1.30
2023-03-26T03:26:21.720Z,1.20
2023-03-26T03:31:28.471Z,1.20
2023-03-26T03:36:33.942Z,1.00
2023-03-26T03:41:39.288Z,1.30
2023-03-26T03:46:44.684Z,1.50
2023-03-26T03:51:50.278Z,1.30
2023-03-26T03:56:56.454Z,1.30
2023-03-26T04:02:02.309Z,1.60
2023-03-26T04:07:07.643Z,1.40
2023-03-26T04:12:13.054Z,1.40
2023-03-26T04:17:21.965Z,1.10
2023-03-26T04:22:34.635Z,1.40
2023-03-26T04:27:43.364Z,1.20
2023-03-26T04:32:49.181Z,1.60
2023-03-26T04:37:54.952Z,1.50
2023-03-26T04:43:02.383Z,1.50
2023-03-26T04:48:08.296Z,1.40
2023-03-26T04:53:16.625Z,1.40
2023-03-26T04:58:21.965Z,1.20
2023-03-26T05:03:31.364Z,1.70
2023-03-26T05:08:36.678Z,1.40
2023-03-26T05:13:42.926Z,1.40
2023-03-26T05:18:48.482Z,1.10
2023-03-26T05:23:54.001Z,1.80
2023-03-26T05:28:59.798Z,1.10
2023-03-26T05:34:06.745Z,1.40
2023-03-26T05:39:14.259Z,1.40
2023-03-26T05:44:19.878Z,1.50
2023-03-26T05:49:25.525Z,1.30
2023-03-26T05:54:31.363Z,1.50
2023-03-26T05:59:36.823Z,1.30
2023-03-26T06:04:42.876Z,0.90
2023-03-26T06:09:48.779Z,1.00
2023-03-26T06:14:54.224Z,0.70
2023-03-26T06:19:59.551Z,0.60
2023-03-26T06:25:06.314Z,0.90
2023-03-26T06:30:13.818Z,0.60
2023-03-26T06:35:19.438Z,0.80
2023-03-26T06:40:25.534Z,1.30
2023-03-26T06:45:32.327Z,0.90
2023-03-26T06:50:37.663Z,0.90
2023-03-26T06:55:43.205Z,1.00
2023-03-26T07:00:48.951Z,0.90
2023-03-26T07:05:54.696Z,0.90
2023-03-26T07:11:00.256Z,1.30
2023-03-26T07:16:07.319Z,0.90
2023-03-26T07:21:14.903Z,0.80
2023-03-26T07:26:31.121Z,0.90
2023-03-26T07:31:42.639Z,0.80
2023-03-26T07:36:57.232Z,1.00
2023-03-26T07:42:11.491Z,0.80
2023-03-26T07:47:27.198Z,1.10
2023-03-26T07:52:33.875Z,0.90
2023-03-26T07:57:47.531Z,1.60
2023-03-26T08:03:13.923Z,1.00
2023-03-26T08:08:27.262Z,0.90
2023-03-26T08:13:42.305Z,1.00
2023-03-26T08:18:56.318Z,1.20
2023-03-26T08:24:07.817Z,1.00
2023-03-26T08:29:23.064Z,1.20
2023-03-26T08:34:28.572Z,1.40
2023-03-26T08:39:34.186Z,1.20
2023-03-26T08:45:26.410Z,2.00
2023-03-26T08:50:56.615Z,1.40
2023-03-26T08:56:12.039Z,1.20
2023-03-26T09:01:41.161Z,0.90
2023-03-26T09:07:10.001Z,1.00
2023-03-26T09:12:46.606Z,1.30
2023-03-26T09:18:25.262Z,1.00
2023-03-26T09:23:56.110Z,1.10
2023-03-26T09:29:34.722Z,1.40
2023-03-26T09:34:55.089Z,1.30
2023-03-26T09:40:15.420Z,1.20
2023-03-26T09:45:38.250Z,0.90
2023-03-26T09:50:56.343Z,1.10
2023-03-26T09:56:14.371Z,0.80
2023-03-26T10:01:29.231Z,0.90
2023-03-26T10:06:48.999Z,1.10
2023-03-26T10:12:08.879Z,1.60
2023-03-26T10:17:32.041Z,1.20
2023-03-26T10:22:51.607Z,1.50
2023-03-26T10:28:09.816Z,2.40
2023-03-26T10:33:25.219Z,1.60
2023-03-26T10:38:46.756Z,1.50
2023-03-26T10:44:15.788Z,1.40
2023-03-26T10:49:39.762Z,2.20
2023-03-26T10:54:55.400Z,1.80
2023-03-26T11:00:12.807Z,2.10
2023-03-26T11:05:39.552Z,2.10
2023-03-26T11:10:56.416Z,1.60
2023-03-26T11:16:06.110Z,1.30
2023-03-26T11:21:20.677Z,1.40
2023-03-26T11:26:32.843Z,1.40
2023-03-26T11:31:48.503Z,1.70
2023-03-26T11:36:56.519Z,1.70
2023-03-26T11:42:07.374Z,1.20
2023-03-26T11:47:16.265Z,1.40
2023-03-26T11:52:22.348Z,1.30
2023-03-26T11:57:33.434Z,1.40
2023-03-26T12:02:42.181Z,1.40
2023-03-26T12:07:52.702Z,1.30
2023-03-26T12:13:01.594Z,1.30
2023-03-26T12:18:25.910Z,1.40
2023-03-26T12:23:43.576Z,1.10
2023-03-26T12:28:51.294Z,1.10
2023-03-26T12:34:14.047Z,1.20
2023-03-26T12:40:08.087Z,1.00
2023-03-26T12:44:59.951Z,1.10
2023-03-26T12:50:09.659Z,1.00
2023-03-26T12:55:38.105Z,1.00
2023-03-26T13:00:55.599Z,1.10
2023-03-26T13:06:20.506Z,1.10
2023-03-26T13:11:34.336Z,1.20
2023-03-26T13:16:46.691Z,1.50
2023-03-26T13:22:02.767Z,1.10
2023-03-26T13:27:22.280Z,1.00
2023-03-26T13:32:37.876Z,1.00
2023-03-26T13:37:51.403Z,0.90
2023-03-26T13:43:14.481Z,0.90
2023-03-26T13:48:24.176Z,0.80
2023-03-26T13:53:35.064Z,0.90
2023-03-26T13:58:49.031Z,0.80
2023-03-26T14:04:04.361Z,0.90
2023-03-26T14:09:17.847Z,0.90
2023-03-26T14:14:31.582Z,1.00
2023-03-26T14:20:10.975Z,0.90
2023-03-26T14:25:25.867Z,1.00
2023-03-26T14:31:08.824Z,0.80
2023-03-26T14:36:29.003Z,0.80
2023-03-26T14:41:43.824Z,1.00
2023-03-26T14:47:02.754Z,0.90
2023-03-26T14:52:14.856Z,1.00
2023-03-26T14:57:38.546Z,0.90
2023-03-26T15:03:34.825Z,0.70
2023-03-26T15:09:11.456Z,1.20
2023-03-26T15:14:43.824Z,0.80
2023-03-26T15:25:41.063Z,1.20
2023-03-26T15:31:11.260Z,1.10
2023-03-26T15:36:37.179Z,1.20
2023-03-26T15:41:49.622Z,1.40
2023-03-26T15:47:26.353Z,1.50
2023-03-26T15:52:38.263Z,1.00
2023-03-26T15:57:53.122Z,1.50
2023-03-26T16:03:34.263Z,1.40
2023-03-26T16:08:53.239Z,1.10
2023-03-26T16:14:17.445Z,1.10
2023-03-26T16:19:58.989Z,1.80
2023-03-26T16:25:29.603Z,1.20
2023-03-26T16:30:37.022Z,1.80
2023-03-26T16:35:59.710Z,1.90
2023-03-26T16:41:14.834Z,1.20
2023-03-26T16:46:34.529Z,1.80
2023-03-26T16:51:57.007Z,1.70
2023-03-26T16:57:15.531Z,1.80
2023-03-26T17:02:29.084Z,1.60
2023-03-26T17:07:38.866Z,1.10
2023-03-26T17:12:51.362Z,1.30
2023-03-26T17:18:32.428Z,1.20
2023-03-26T17:24:00.193Z,1.00
2023-03-26T17:29:20.331Z,0.90
2023-03-26T17:34:46.630Z,1.10
2023-03-26T17:40:37.152Z,1.40
2023-03-26T17:45:43.897Z,1.50
2023-03-26T17:50:54.394Z,1.20
2023-03-26T17:56:05.531Z,1.50
2023-03-26T18:01:22.276Z,1.50
2023-03-26T18:06:44.975Z,1.40
2023-03-26T18:12:11.633Z,1.60
2023-03-26T18:17:17.398Z,2.20
2023-03-26T18:22:26.587Z,2.20
2023-03-26T18:27:40.555Z,2.40
2023-03-26T18:33:00.120Z,2.80
2023-03-26T18:38:06.111Z,3.70
2023-03-26T18:43:32.276Z,4.60
2023-03-26T18:48:40.948Z,3.90
2023-03-26T18:53:50.738Z,3.10
2023-03-26T18:58:58.911Z,2.50
2023-03-26T19:04:07.041Z,2.50
2023-03-26T19:09:30.325Z,2.10
2023-03-26T19:14:53.537Z,1.60
2023-03-26T19:19:59.208Z,1.90
2023-03-26T19:25:05.852Z,2.00
2023-03-26T19:30:20.110Z,2.00
2023-03-26T19:35:25.515Z,2.10
2023-03-26T19:40:34.974Z,2.50
2023-03-26T19:45:59.861Z,2.30
2023-03-26T19:51:19.501Z,3.00
2023-03-26T19:56:25.581Z,2.50
2023-03-26T20:01:32.187Z,2.90
2023-03-26T20:06:43.777Z,2.10
2023-03-26T20:11:52.622Z,1.90
2023-03-26T20:16:58.115Z,2.20
2023-03-26T20:22:05.389Z,2.10
2023-03-26T20:27:13.796Z,2.40
2023-03-26T20:32:26.495Z,2.50
2023-03-26T20:37:32.585Z,2.00
2023-03-26T20:42:38.441Z,2.10
2023-03-26T20:47:44.042Z,1.90
2023-03-26T20:52:50.458Z,2.20
2023-03-26T20:57:55.867Z,1.80
2023-03-26T21:03:02.000Z,2.00
2023-03-26T21:08:12.912Z,2.30
2023-03-26T21:13:39.085Z,1.80
2023-03-26T21:18:46.015Z,2.30
2023-03-26T21:24:00.253Z,2.30
2023-03-26T21:29:06.311Z,2.40
2023-03-26T21:34:13.387Z,1.90
2023-03-26T21:39:20.291Z,3.20
2023-03-26T21:44:27.229Z,2.30
2023-03-26T21:49:34.884Z,2.80
2023-03-26T21:54:43.014Z,2.60
2023-03-26T21:59:56.695Z,2.20
2023-03-26T22:05:06.142Z,2.50
2023-03-26T22:10:11.794Z,1.90
2023-03-26T22:15:18.264Z,2.30
2023-03-26T22:20:25.159Z,2.40
2023-03-26T22:25:51.043Z,2.00
2023-03-26T22:31:16.844Z,2.30
2023-03-26T22:36:42.755Z,1.70
2023-03-26T22:42:08.471Z,2.40
2023-03-26T22:47:34.177Z,1.80
2023-03-26T22:53:00.290Z,1.60
2023-03-26T22:58:26.055Z,1.70
2023-03-26T23:03:52.293Z,1.60
2023-03-26T23:09:18.038Z,1.50
2023-03-26T23:14:44.172Z,1.80
2023-03-26T23:20:09.817Z,1.80
2023-03-26T23:25:35.556Z,1.60
2023-03-26T23:31:05.441Z,2.00
2023-03-26T23:36:32.911Z,1.40
2023-03-26T23:41:58.850Z,1.70
2023-03-26T23:47:24.626Z,1.70
2023-03-26T23:52:51.856Z,1.30
2023-03-26T23:58:17.511Z,1.60
